createdAt,value
2019-04-10T14:09:34.884Z,13.08
2019-04-10T14:11:51.469Z,11.33
2019-04-10T14:14:18.289Z,9.80
2019-04-10T14:16:46.836Z,10.05
2019-04-10T14:19:15.127Z,9.35
2019-04-10T14:21:41.367Z,9.50
2019-04-10T14:24:07.784Z,10.08
2019-04-10T14:26:45.901Z,10.75
2019-04-10T14:29:09.396Z,10.58
2019-04-10T14:31:37.691Z,10.43
2019-04-10T14:34:05.014Z,10.15
2019-04-10T14:36:31.903Z,10.90
2019-04-10T14:39:08.683Z,9.78
2019-04-10T14:41:27.525Z,10.38
2019-04-10T14:43:55.606Z,9.53
2019-04-10T14:46:21.980Z,10.13
2019-04-10T14:48:48.869Z,10.40
2019-04-10T14:51:16.494Z,11.03
2019-04-10T14:53:43.615Z,10.30
2019-04-10T14:56:10.469Z,10.40
2019-04-10T14:58:36.992Z,10.23
2019-04-10T15:01:06.969Z,9.83
2019-04-10T15:03:32.869Z,10.18
2019-04-10T15:06:01.063Z,9.90
2019-04-10T15:08:27.976Z,13.28
2019-04-10T15:10:54.418Z,11.03
2019-04-10T15:13:22.707Z,10.85
2019-04-10T15:15:50.287Z,11.43
2019-04-10T15:18:16.712Z,10.60
2019-04-10T15:20:42.785Z,10.38
2019-04-10T15:23:09.797Z,10.48
2019-04-10T15:25:36.121Z,10.82
2019-04-10T15:28:02.587Z,11.30
2019-04-10T15:30:28.812Z,10.72
2019-04-10T15:32:56.101Z,10.43
2019-04-10T15:35:22.316Z,10.10
2019-04-10T15:37:49.274Z,9.93
2019-04-10T15:40:20.932Z,10.75
2019-04-10T15:42:44.054Z,11.40
2019-04-10T15:45:10.658Z,12.05
2019-04-10T15:47:37.449Z,11.38
2019-04-10T15:50:06.920Z,15.15
2019-04-10T15:52:33.419Z,9.58
2019-04-10T15:54:59.698Z,10.43
2019-04-10T15:57:26.917Z,9.78
2019-04-10T15:59:53.248Z,9.85
2019-04-10T16:02:19.691Z,10.13
2019-04-10T16:04:46.006Z,9.53
2019-04-10T16:07:12.545Z,9.50
2019-04-10T16:09:47.639Z,9.75
2019-04-10T16:12:16.476Z,9.33
2019-04-10T16:14:42.891Z,9.50
2019-04-10T16:17:29.599Z,8.75
2019-04-10T16:20:15.464Z,9.73
2019-04-10T16:22:44.740Z,9.08
2019-04-10T16:25:13.706Z,10.00
2019-04-10T16:27:41.138Z,10.10
2019-04-10T16:30:10.264Z,9.50
2019-04-10T16:32:37.021Z,9.20
2019-04-10T16:35:05.221Z,8.98
2019-04-10T16:37:31.707Z,8.98
2019-04-10T16:40:04.064Z,8.43
2019-04-10T16:42:27.110Z,8.98
2019-04-10T16:44:53.437Z,9.20
2019-04-10T16:47:19.742Z,9.10
2019-04-10T16:49:50.241Z,9.28
2019-04-10T16:52:16.810Z,8.50
2019-04-10T16:54:43.050Z,9.25
2019-04-10T16:57:10.046Z,8.73
2019-04-10T16:59:37.489Z,8.35
2019-04-10T17:02:56.940Z,9.65
2019-04-10T17:04:43.701Z,9.63
2019-04-10T17:07:10.612Z,8.30
2019-04-10T17:09:37.051Z,8.30
2019-04-10T17:12:03.999Z,8.53
2019-04-10T17:14:31.407Z,8.05
2019-04-10T17:16:57.853Z,9.13
2019-04-10T17:19:24.207Z,8.40
2019-04-10T17:21:52.121Z,8.18
2019-04-10T17:24:18.590Z,9.23
2019-04-10T17:26:46.729Z,8.08
2019-04-10T17:29:13.066Z,8.83
2019-04-10T17:31:40.404Z,7.20
2019-04-10T17:34:06.551Z,7.28
2019-04-10T17:36:32.887Z,8.13
2019-04-10T17:39:00.469Z,7.22
2019-04-10T17:41:33.309Z,7.95
2019-04-10T17:44:02.934Z,7.95
2019-04-10T17:46:31.298Z,8.15
2019-04-10T17:49:03.195Z,7.97
2019-04-10T17:51:28.429Z,8.28
2019-04-10T17:53:57.946Z,7.72
2019-04-10T17:56:32.804Z,7.60
2019-04-10T17:59:08.115Z,9.90
2019-04-10T18:02:05.733Z,9.18
2019-04-10T18:04:36.665Z,7.60
2019-04-10T18:07:32.261Z,8.23
2019-04-10T18:10:00.421Z,7.72
2019-04-10T18:12:27.991Z,7.58
2019-04-10T18:14:55.744Z,7.75
2019-04-10T18:17:26.941Z,8.08
2019-04-10T18:21:20.283Z,6.08
2019-04-10T18:23:04.296Z,8.30
2019-04-10T18:25:31.908Z,7.85
2019-04-10T18:27:58.249Z,8.23
2019-04-10T18:30:24.528Z,8.63
2019-04-10T18:32:50.780Z,10.15
2019-04-10T18:35:19.051Z,9.80
2019-04-10T18:37:47.804Z,9.70
2019-04-10T18:40:14.820Z,9.65
2019-04-10T18:42:41.259Z,9.80
2019-04-10T18:45:09.678Z,8.85
2019-04-10T18:47:39.264Z,9.73
2019-04-10T18:50:08.254Z,9.13
2019-04-10T18:52:42.101Z,9.10
2019-04-10T18:55:14.408Z,9.73
2019-04-10T18:57:43.106Z,11.15
2019-04-10T19:00:27.186Z,10.78
2019-04-10T19:03:01.295Z,10.65
2019-04-10T19:05:30.309Z,10.13
2019-04-10T19:07:56.789Z,8.98
2019-04-10T19:10:23.089Z,9.58
2019-04-10T19:12:49.334Z,8.63
2019-04-10T19:15:15.446Z,8.93
2019-04-10T19:17:42.004Z,8.70
2019-04-10T19:20:10.955Z,9.15
2019-04-10T19:22:37.366Z,9.38
2019-04-10T19:25:05.952Z,9.08
2019-04-10T19:27:36.438Z,8.83
2019-04-10T19:30:07.982Z,7.10
2019-04-10T19:32:35.772Z,8.30
2019-04-10T19:35:10.857Z,8.38
2019-04-10T19:37:36.804Z,8.53
2019-04-10T19:40:08.967Z,7.90
2019-04-10T19:42:35.657Z,8.15
2019-04-10T19:45:03.740Z,8.23
2019-04-10T19:47:30.519Z,8.70
2019-04-10T19:49:57.785Z,8.48
2019-04-10T19:52:32.827Z,7.70
2019-04-10T19:54:55.187Z,7.85
2019-04-10T19:57:22.272Z,7.78
2019-04-10T19:59:50.221Z,8.35
2019-04-10T20:02:17.040Z,7.97
2019-04-10T20:04:48.428Z,8.48
2019-04-10T20:07:14.836Z,8.18
2019-04-10T20:09:41.949Z,8.38
2019-04-10T20:12:08.568Z,8.33
2019-04-10T20:14:34.958Z,8.58
2019-04-10T20:17:08.048Z,8.58
2019-04-10T20:19:30.733Z,8.63
2019-04-10T20:22:00.593Z,8.30
2019-04-10T20:24:29.782Z,8.38
2019-04-10T20:26:56.051Z,8.60
2019-04-10T20:29:23.632Z,8.33
2019-04-10T20:31:51.344Z,8.33
2019-04-10T20:34:21.041Z,9.28
2019-04-10T20:36:49.009Z,8.70
2019-04-10T20:39:15.452Z,9.58
2019-04-10T20:41:49.843Z,9.93
2019-04-10T20:44:14.389Z,9.95
2019-04-10T20:46:42.401Z,10.60
2019-04-10T20:49:08.604Z,10.05
2019-04-10T20:51:39.807Z,10.63
2019-04-10T20:54:06.605Z,10.98
2019-04-10T20:56:36.938Z,11.78
2019-04-10T20:59:03.488Z,8.33
2019-04-10T21:01:30.991Z,10.95
2019-04-10T21:04:00.773Z,10.80
2019-04-10T21:06:27.057Z,10.88
2019-04-10T21:08:54.386Z,10.80
2019-04-10T21:11:20.799Z,11.25
2019-04-10T21:13:49.082Z,11.50
2019-04-10T21:16:15.592Z,10.98
2019-04-10T21:18:41.929Z,10.65
2019-04-10T21:21:08.234Z,10.63
2019-04-10T21:23:34.307Z,11.57
2019-04-10T21:26:00.532Z,10.98
2019-04-10T21:28:26.642Z,10.40
2019-04-10T21:30:56.634Z,11.43
2019-04-10T21:33:28.042Z,10.65
2019-04-10T21:35:54.282Z,10.48
2019-04-10T21:38:21.444Z,10.95
2019-04-10T21:40:49.955Z,10.98
2019-04-10T21:43:20.276Z,10.43
2019-04-10T21:45:49.697Z,10.98
2019-04-10T21:48:16.797Z,11.05
2019-04-10T21:50:43.950Z,10.63
2019-04-10T21:53:14.827Z,11.08
2019-04-10T21:55:39.513Z,10.85
2019-04-10T21:58:06.059Z,11.15
2019-04-10T22:00:34.619Z,11.48
2019-04-10T22:03:05.134Z,8.58
2019-04-10T22:05:34.622Z,10.98
2019-04-10T22:08:03.142Z,10.70
2019-04-10T22:10:40.098Z,11.20
2019-04-10T22:13:09.562Z,10.40
2019-04-10T22:15:41.465Z,11.60
2019-04-10T22:18:09.768Z,11.80
2019-04-10T22:20:37.591Z,11.15
2019-04-10T22:23:05.835Z,10.60
2019-04-10T22:25:33.944Z,10.60
2019-04-10T22:28:00.603Z,10.68
2019-04-10T22:30:27.222Z,11.45
2019-04-10T22:32:53.550Z,11.57
2019-04-10T22:35:24.246Z,11.85
2019-04-10T22:37:52.875Z,11.55
2019-04-10T22:40:19.431Z,11.38
2019-04-10T22:42:53.259Z,12.00
2019-04-10T22:45:25.672Z,11.60
2019-04-10T22:47:56.301Z,11.53
2019-04-10T22:50:27.395Z,11.40
2019-04-10T22:52:54.955Z,10.83
2019-04-10T22:55:23.838Z,11.28
2019-04-10T22:57:54.513Z,11.50
2019-04-10T23:00:22.409Z,11.90
2019-04-10T23:02:50.655Z,12.07
2019-04-10T23:05:16.888Z,12.43
2019-04-10T23:07:43.144Z,11.57
2019-04-10T23:10:12.877Z,11.70
2019-04-10T23:12:52.291Z,11.40
2019-04-10T23:15:23.061Z,11.45
2019-04-10T23:17:47.095Z,9.20
2019-04-10T23:20:16.507Z,11.93
2019-04-10T23:22:45.168Z,11.90
2019-04-10T23:25:11.937Z,11.53
2019-04-10T23:27:40.036Z,12.20
2019-04-10T23:30:09.249Z,11.45
2019-04-10T23:32:37.523Z,11.73
2019-04-10T23:35:05.759Z,8.37
2019-04-10T23:37:33.746Z,11.18
2019-04-10T23:40:00.738Z,12.28
2019-04-10T23:42:28.241Z,11.43
2019-04-10T23:44:55.377Z,12.78
2019-04-10T23:47:22.174Z,13.43
2019-04-10T23:49:48.554Z,11.20
2019-04-10T23:52:19.951Z,11.25
2019-04-10T23:54:57.549Z,11.80
2019-04-10T23:57:23.843Z,11.93
2019-04-10T23:59:51.104Z,11.73
